• Join FlightAware (Why Join?)
  • Login
  • US Flag 
07:21PM EDT


 

Airport Tracker/Info


-or-


 

Live Flight TrackerFlight Track Log ✈ BER8565 ✈ 27-Apr-2012 ✈ LEBL / BCN - EDDL / DUS

Flight Track Log - Related Links

Times and Time Zones

All times are in EDT time to prevent confusion due to time zone crossing. See the BER8565 flight status page for this flight to view local times or setup timezone preferences in your user account.

Time Position Orientation Groundspeed Altitude Reporting Facility
EDT Latitude Longitude Course Direction KTS MPH feet Rate Location/Type
03:11PM 42.4605 2.5397 17° North  Level Estimated
03:12PM 42.5554 2.5781 17° North  Level Estimated
03:13PM 42.6502 2.6166 17° North  Level Estimated
03:14PM 42.7451 2.6552 17° North  Level Estimated
03:15PM 42.8399 2.6940 17° North  Level Estimated
03:16PM 42.9348 2.7329 17° North  Level Estimated
03:17PM 43.0296 2.7719 17° North  Level Estimated
03:18PM 43.1244 2.8110 17° North  Level Estimated
03:19PM 43.2192 2.8502 17° North  Level Estimated
03:20PM 43.3140 2.8896 17° North  Level Estimated
03:21PM 43.4088 2.9291 17° North  Level Estimated
03:22PM 43.5035 2.9687 17° North  Level Estimated
03:23PM 43.5983 3.0084 17° North  Level Estimated
03:24PM 43.6930 3.0483 17° North  Level Estimated
03:25PM 43.7877 3.0883 17° North  Level Estimated
03:26PM 43.8824 3.1284 17° North  Level Estimated
03:27PM 43.9771 3.1686 17° North  Level Estimated
03:28PM 44.0718 3.2090 17° North  Level Estimated
03:29PM 44.1664 3.2495 17° North  Level Estimated
03:30PM 44.2611 3.2901 17° North  Level Estimated
03:31PM 44.3557 3.3308 17° North  Level Estimated
03:32PM 44.4503 3.3717 17° North  Level Estimated
03:33PM 44.5449 3.4128 17° North  Level Estimated
03:34PM 44.6395 3.4539 17° North  Level Estimated
03:35PM 44.7341 3.4952 17° North  Level Estimated
03:36PM 44.8286 3.5366 17° North  Level Estimated
03:37PM 44.9231 3.5782 17° North  Level Estimated
03:38PM 45.0177 3.6199 17° North  Level Estimated
03:39PM 45.1122 3.6617 17° North  Level Estimated
03:40PM 45.2067 3.7037 17° North  Level Estimated
03:41PM 45.3012 3.7458 17° North  Level Estimated
03:42PM 45.3956 3.7880 17° North  Level Estimated
03:43PM 45.4901 3.8304 17° North  Level Estimated
03:44PM 45.5845 3.8730 18° North  Level Estimated
03:45PM 45.6789 3.9156 18° North  Level Estimated
03:46PM 45.7733 3.9585 18° North  Level Estimated
03:47PM 45.8677 4.0014 18° North  Level Estimated
03:48PM 45.9621 4.0445 18° North  Level Estimated
03:49PM 46.0564 4.0878 18° North  Level Estimated
03:50PM 46.1508 4.1312 18° North  Level Estimated
03:51PM 46.2451 4.1748 18° North  Level Estimated
03:52PM 46.3394 4.2185 18° North  Level Estimated
03:53PM 46.4337 4.2624 18° North  Level Estimated
03:54PM 46.5279 4.3064 18° North  Level Estimated
03:55PM 46.6222 4.3505 18° North  Level Estimated
03:56PM 46.7164 4.3948 18° North  Level Estimated
03:57PM 46.8106 4.4393 18° North  Level Estimated
03:58PM 46.9048 4.4840 18° North  Level Estimated
03:59PM 46.9990 4.5287 18° North  Level Estimated
04:00PM 47.0932 4.5737 18° North  Level Estimated
04:01PM 47.1873 4.6188 18° North  Level Estimated
04:02PM 47.2815 4.6641 18° North  Level Estimated
04:03PM 47.3756 4.7095 18° North  Level Estimated
04:04PM 47.4697 4.7551 18° North  Level Estimated
04:05PM 47.5638 4.8008 18° North  Level Estimated
04:06PM 47.6578 4.8468 18° North  Level Estimated
04:07PM 47.7519 4.8928 18° North  Level Estimated
04:08PM 47.8459 4.9391 18° North  Level Estimated
04:09PM 47.9399 4.9855 18° North  Level Estimated
04:10PM 48.0339 5.0321 18° North  Level Estimated
04:11PM 48.1278 5.0789 18° North  Level Estimated
04:12PM 48.2218 5.1258 18° North  Level Estimated
04:13PM 48.3157 5.1729 18° North  Level Estimated
04:14PM 48.4096 5.2202 19° North  Level Estimated
04:15PM 48.5035 5.2676 19° North  Level Estimated
04:16PM 48.5974 5.3153 19° North  Level Estimated
04:17PM 48.6912 5.3631 19° North  Level Estimated
04:18PM 48.7850 5.4110 19° North  Level Estimated
04:19PM 48.8789 5.4592 19° North  Level Estimated
04:20PM 48.9726 5.5075 19° North  Level Estimated
04:21PM 49.0664 5.5561 19° North  Level Estimated
04:22PM 49.1602 5.6048 19° North  Level Estimated
04:23PM 49.2539 5.6537 19° North  Level Estimated
04:24PM 49.3476 5.7028 19° North  Level Estimated
04:25PM 49.4413 5.7520 19° North  Level Estimated
04:26PM 49.5350 5.8015 19° North  Level Estimated
04:27PM 49.6286 5.8511 19° North  Level Estimated
04:28PM 49.7222 5.9010 19° North  Level Estimated
04:29PM 49.8158 5.9510 19° North  Level Estimated
04:30PM 49.9094 6.0012 19° North  Level Estimated
04:31PM 50.0030 6.0516 19° North  Level Estimated
04:32PM 50.0965 6.1022 19° North  Level Estimated
04:33PM 50.1900 6.1530 19° North  Level Estimated
04:34PM 50.2835 6.2041 19° North  Level Estimated
04:35PM 50.3770 6.2553 19° North  Level Estimated
04:36PM 50.4704 6.3067 19° North  Level Estimated
04:37PM 50.5639 6.3583 19° North  Level Estimated
04:38PM 50.6573 6.4101 19° North  Level Estimated
04:39PM 50.7506 6.4622 19° North  Level Estimated
04:40PM 50.8440 6.5144 19° North  Level Estimated
04:41PM 50.9373 6.5669 20° North  Level Estimated
04:42PM 51.0306 6.6195 20° North  Level Estimated
04:43PM 51.1239 6.6724 20° North  Level Estimated
04:44PM 51.2172 6.7255 20° North  Level Estimated
04:45PM 51.3104 6.7788 200° South  Level Estimated
04:46PM 51.2172 6.7255 20° North  Level Estimated
04:47PM 51.3104 6.7788 200° South  Level Estimated
04:48PM 51.2172 6.7255 20° North  Level Estimated
04:49PM 51.3104 6.7788 20° North  Level Estimated